Time;durP1;ratioP1;P1;durP2;ratioP2;P2;SDS_P1;SDS_P2;PMS_P1;PMS_P2;Temp;Humidity;BMP_temperature;BMP_pressure;BME280_temperature;BME280_humidity;BME280_pressure;Samples;Min_cycle;Max_cycle;Signal;HPM_P1;HPM_P2
2022/10/03 00:00:32;;;;;;;0.50;0.50;;;10.30;99.90;;;;;;5092666;28;20422;-68
2022/10/03 00:03:35;;;;;;;0.40;0.40;;;10.40;99.90;;;;;;5092079;28;20418;-69
2022/10/03 00:06:34;;;;;;;2.73;1.20;;;10.30;99.90;;;;;;5092138;28;20568;-68
2022/10/03 00:09:35;;;;;;;0.40;0.40;;;10.40;99.90;;;;;;5093118;28;20519;-68
2022/10/03 00:12:46;;;;;;;2.40;1.27;;;10.30;99.90;;;;;;5092475;28;20450;-68
2022/10/03 00:15:39;;;;;;;0.57;0.57;;;10.40;99.90;;;;;;5114899;22;20493;-73
2022/10/03 00:18:41;;;;;;;0.40;0.40;;;10.40;99.90;;;;;;5093474;28;20479;-71
2022/10/03 00:21:51;;;;;;;2.10;0.70;;;10.30;99.90;;;;;;5093037;28;20453;-73
2022/10/03 00:24:49;;;;;;;0.40;0.40;;;10.40;99.90;;;;;;5094093;28;20477;-71
2022/10/03 00:27:43;;;;;;;0.40;0.40;;;10.40;99.90;;;;;;5098365;28;20454;-71
2022/10/03 00:30:59;;;;;;;0.40;0.40;;;10.50;99.90;;;;;;5103483;28;20450;-73
2022/10/03 00:34:01;;;;;;;0.40;0.40;;;10.60;99.90;;;;;;5100528;28;20433;-75
2022/10/03 00:36:55;;;;;;;0.80;0.63;;;10.80;99.90;;;;;;5093552;28;20500;-73
2022/10/03 00:39:54;;;;;;;3.40;2.83;;;10.80;99.90;;;;;;5099586;28;20454;-73
2022/10/03 00:43:07;;;;;;;0.47;0.47;;;11.00;99.90;;;;;;5095894;28;20458;-72
2022/10/03 00:46:33;;;;;;;5.00;0.77;;;11.10;99.90;;;;;;5093663;28;20542;-74
2022/10/03 00:50:14;;;;;;;0.97;0.93;;;11.10;99.90;;;;;;5094416;28;20480;-72
2022/10/03 00:53:16;;;;;;;5.50;1.17;;;11.10;99.90;;;;;;5093419;28;20836;-72
2022/10/03 00:56:43;;;;;;;5.57;1.07;;;11.20;99.90;;;;;;5095145;28;20437;-74
2022/10/03 00:59:43;;;;;;;0.40;0.40;;;11.30;99.90;;;;;;5095500;28;20426;-74
2022/10/03 01:02:48;;;;;;;0.40;0.40;;;11.30;99.90;;;;;;5099097;28;20430;-74
2022/10/03 01:05:52;;;;;;;1.27;1.27;;;11.40;99.90;;;;;;5096698;28;20442;-74
2022/10/03 01:08:57;;;;;;;11.47;1.23;;;11.40;99.90;;;;;;5098255;28;20434;-74
2022/10/03 01:12:12;;;;;;;0.50;0.50;;;11.40;99.90;;;;;;5097842;28;20523;-73
2022/10/03 01:15:18;;;;;;;0.40;0.40;;;11.50;99.90;;;;;;5095947;28;20825;-72
2022/10/03 01:18:18;;;;;;;0.93;0.93;;;11.50;99.90;;;;;;5096171;28;20510;-73
2022/10/03 01:21:19;;;;;;;0.40;0.40;;;11.50;99.90;;;;;;5092141;28;20430;-73
2022/10/03 01:24:50;;;;;;;0.43;0.43;;;11.60;99.90;;;;;;5077244;28;20434;-72
2022/10/03 01:30:56;;;;;;;0.40;0.40;;;11.70;99.90;;;;;;5092044;28;20470;-73
2022/10/03 01:33:52;;;;;;;0.80;0.50;;;11.70;99.90;;;;;;5096087;28;20426;-73
2022/10/03 01:36:51;;;;;;;0.80;0.50;;;11.70;99.90;;;;;;5095724;28;20430;-73
2022/10/03 01:39:46;;;;;;;2.93;1.00;;;11.60;99.90;;;;;;5096003;28;20419;-71
2022/10/03 01:42:40;;;;;;;0.50;0.50;;;11.70;99.90;;;;;;5095511;28;20517;-75
2022/10/03 01:45:36;;;;;;;0.70;0.70;;;11.60;99.90;;;;;;5096091;28;20442;-74
2022/10/03 01:48:33;;;;;;;0.40;0.40;;;11.70;99.90;;;;;;5094521;28;20431;-74
2022/10/03 01:51:27;;;;;;;0.40;0.40;;;11.70;99.90;;;;;;5094516;28;20414;-72
2022/10/03 01:54:25;;;;;;;0.93;0.93;;;11.70;99.90;;;;;;5095888;28;20432;-74
2022/10/03 01:57:20;;;;;;;0.40;0.40;;;11.70;99.90;;;;;;5095874;28;20514;-73
2022/10/03 02:00:13;;;;;;;0.73;0.73;;;11.70;99.90;;;;;;5094475;28;20429;-72
2022/10/03 02:03:09;;;;;;;0.40;0.40;;;11.70;99.90;;;;;;5094726;28;20432;-74
2022/10/03 02:06:05;;;;;;;3.63;1.17;;;11.60;99.90;;;;;;5093599;28;20442;-73
2022/10/03 02:09:02;;;;;;;0.97;0.90;;;11.50;99.90;;;;;;5095772;28;20425;-74
2022/10/03 02:12:02;;;;;;;0.63;0.50;;;11.40;99.90;;;;;;5095057;28;20419;-75
2022/10/03 02:14:59;;;;;;;0.40;0.40;;;11.40;99.90;;;;;;5093937;28;20465;-72
2022/10/03 02:17:56;;;;;;;0.60;0.57;;;11.50;99.90;;;;;;5093909;28;20465;-75
2022/10/03 02:20:48;;;;;;;0.50;0.50;;;11.50;99.90;;;;;;5093242;28;20426;-73
2022/10/03 02:23:44;;;;;;;1.37;0.80;;;11.50;99.90;;;;;;5094592;28;20506;-72
2022/10/03 02:27:07;;;;;;;7.53;0.90;;;11.50;99.90;;;;;;5091098;28;20946;-74
2022/10/03 02:30:14;;;;;;;0.60;0.60;;;10.30;99.90;;;;;;5074116;28;20432;-74
2022/10/03 02:33:35;;;;;;;2.20;1.00;;;11.50;99.90;;;;;;5073897;28;20505;-75
2022/10/03 02:36:48;;;;;;;1.37;1.03;;;11.50;99.90;;;;;;5074191;28;20453;-73
2022/10/03 02:39:58;;;;;;;1.20;1.00;;;11.50;99.90;;;;;;5077372;28;20463;-75
2022/10/03 02:43:18;;;;;;;0.40;0.40;;;11.60;99.90;;;;;;5076990;28;20423;-73
2022/10/03 02:46:38;;;;;;;2.53;0.60;;;11.60;99.90;;;;;;5075495;28;20447;-72
2022/10/03 02:49:57;;;;;;;2.03;1.93;;;11.60;99.90;;;;;;5076253;28;20424;-72
2022/10/03 02:53:12;;;;;;;5.30;3.40;;;11.60;99.90;;;;;;5075549;28;20461;-73
2022/10/03 02:56:34;;;;;;;0.73;0.73;;;11.60;99.90;;;;;;5076041;28;20436;-72
2022/10/03 02:59:53;;;;;;;0.50;0.50;;;11.60;99.90;;;;;;5074804;28;20455;-72
2022/10/03 03:03:18;;;;;;;0.50;0.50;;;11.50;99.90;;;;;;5074418;28;20453;-73
2022/10/03 03:06:45;;;;;;;0.50;0.50;;;11.50;99.90;;;;;;5075040;28;20439;-73
2022/10/03 03:10:15;;;;;;;2.10;0.97;;;11.50;99.90;;;;;;5039321;28;20439;-74
2022/10/03 03:13:45;;;;;;;0.40;0.40;;;11.50;99.90;;;;;;5071477;28;20425;-74
2022/10/03 03:16:52;;;;;;;3.17;0.70;;;11.40;99.90;;;;;;5073527;28;20472;-72
2022/10/03 03:20:07;;;;;;;0.50;0.50;;;11.40;99.90;;;;;;5072506;28;20967;-73
2022/10/03 03:23:12;;;;;;;0.40;0.40;;;11.30;99.90;;;;;;5071961;28;20435;-71
2022/10/03 03:26:17;;;;;;;0.80;0.73;;;11.30;99.90;;;;;;5072417;28;20438;-74
2022/10/03 03:29:20;;;;;;;0.50;0.50;;;11.30;99.90;;;;;;5072982;28;20425;-73
2022/10/03 03:32:19;;;;;;;3.10;0.93;;;11.30;99.90;;;;;;5074295;28;20955;-75
2022/10/03 03:35:18;;;;;;;0.50;0.50;;;11.30;99.90;;;;;;5074002;28;20450;-73
2022/10/03 03:38:19;;;;;;;0.40;0.40;;;11.30;99.90;;;;;;5094238;28;20434;-73
2022/10/03 03:41:25;;;;;;;0.50;0.50;;;11.30;99.90;;;;;;5092845;28;20515;-74
2022/10/03 03:44:36;;;;;;;0.60;0.60;;;11.30;99.90;;;;;;5094880;28;20960;-75
2022/10/03 03:47:47;;;;;;;2.83;0.77;;;11.30;99.90;;;;;;5094189;28;20434;-74
2022/10/03 03:50:51;;;;;;;0.40;0.40;;;11.20;99.90;;;;;;5092062;28;21039;-72
2022/10/03 03:54:05;;;;;;;4.90;0.90;;;11.20;99.90;;;;;;5091245;28;20429;-72
2022/10/03 03:57:19;;;;;;;0.50;0.50;;;11.20;99.90;;;;;;5091811;28;20429;-73
2022/10/03 04:00:14;;;;;;;0.40;0.40;;;11.20;99.90;;;;;;5093618;28;20470;-73
2022/10/03 04:03:11;;;;;;;0.40;0.40;;;11.20;99.90;;;;;;5094691;28;20505;-72
2022/10/03 04:06:33;;;;;;;0.40;0.40;;;11.20;99.90;;;;;;5092010;28;20468;-74
2022/10/03 04:09:59;;;;;;;0.80;0.80;;;11.20;99.90;;;;;;5090411;28;20510;-72
2022/10/03 04:13:11;;;;;;;0.50;0.50;;;11.30;99.90;;;;;;5091355;28;20423;-72
2022/10/03 04:18:56;;;;;;;0.40;0.40;;;11.30;99.90;;;;;;5091661;28;20467;-74
2022/10/03 04:19:40;;;;;;;0.50;0.50;;;11.30;99.90;;;;;;5091742;28;20997;-73
2022/10/03 04:22:52;;;;;;;0.97;0.90;;;11.30;99.90;;;;;;5092403;28;20510;-73
2022/10/03 04:25:53;;;;;;;0.60;0.50;;;11.30;99.90;;;;;;5091384;28;20452;-73
2022/10/03 04:29:06;;;;;;;6.00;1.33;;;11.30;99.90;;;;;;5074126;28;20766;-72
2022/10/03 04:32:06;;;;;;;0.40;0.40;;;11.30;99.90;;;;;;5072712;28;20419;-72
2022/10/03 04:35:09;;;;;;;0.90;0.90;;;11.30;99.90;;;;;;5075147;28;20446;-74
2022/10/03 04:38:06;;;;;;;0.90;0.90;;;12.30;99.90;;;;;;5077046;28;20429;-70
2022/10/03 04:41:02;;;;;;;6.00;2.83;;;11.10;99.90;;;;;;5076534;28;20415;-71
2022/10/03 04:43:59;;;;;;;0.47;0.47;;;11.00;99.90;;;;;;5077717;28;20971;-73
2022/10/03 04:46:54;;;;;;;0.40;0.40;;;10.80;99.90;;;;;;5076926;28;20505;-72
2022/10/03 04:49:51;;;;;;;0.40;0.40;;;10.70;99.90;;;;;;5076682;28;20435;-73
2022/10/03 04:52:48;;;;;;;0.50;0.50;;;10.60;99.90;;;;;;5076733;28;20423;-73
2022/10/03 04:55:42;;;;;;;0.60;0.60;;;10.50;99.90;;;;;;5077047;28;20445;-72
2022/10/03 04:58:36;;;;;;;0.83;0.50;;;10.50;99.90;;;;;;5076295;28;20939;-72
2022/10/03 05:01:31;;;;;;;1.27;0.60;;;10.40;99.90;;;;;;5075630;28;20421;-72
2022/10/03 05:04:28;;;;;;;0.40;0.40;;;10.30;99.90;;;;;;5077305;28;20423;-72
2022/10/03 05:07:25;;;;;;;2.30;1.00;;;10.50;99.90;;;;;;5077366;28;20419;-74
2022/10/03 05:10:42;;;;;;;1.93;0.90;;;10.50;99.90;;;;;;5075951;28;20421;-72
2022/10/03 05:13:46;;;;;;;0.40;0.40;;;10.50;99.90;;;;;;5076203;28;20438;-72
2022/10/03 05:16:42;;;;;;;0.67;0.67;;;10.50;99.90;;;;;;5075462;28;20451;-75
2022/10/03 05:19:44;;;;;;;6.40;1.20;;;10.60;99.90;;;;;;5075774;28;20959;-71
2022/10/03 05:22:44;;;;;;;0.50;0.50;;;10.70;99.90;;;;;;5073991;28;20423;-73
2022/10/03 05:25:43;;;;;;;2.03;1.90;;;10.80;99.90;;;;;;5075691;28;20439;-72
2022/10/03 05:28:40;;;;;;;0.83;0.83;;;11.00;99.90;;;;;;5095574;28;20426;-73
2022/10/03 05:31:37;;;;;;;1.90;0.57;;;11.10;99.90;;;;;;5097495;28;20433;-72
2022/10/03 05:34:37;;;;;;;0.50;0.50;;;11.20;99.90;;;;;;5097571;28;21022;-73
2022/10/03 05:37:40;;;;;;;0.70;0.70;;;11.20;99.90;;;;;;5097633;28;20418;-74
2022/10/03 05:40:32;;;;;;;0.40;0.40;;;11.30;99.90;;;;;;5095795;28;20841;-73
2022/10/03 05:43:35;;;;;;;0.67;0.67;;;11.30;99.90;;;;;;5099789;28;20486;-72
2022/10/03 05:46:40;;;;;;;0.40;0.40;;;11.30;99.90;;;;;;5097964;28;20452;-73
2022/10/03 05:49:52;;;;;;;0.60;0.60;;;11.30;99.90;;;;;;5097485;28;20938;-72
2022/10/03 05:53:16;;;;;;;0.67;0.67;;;11.30;99.90;;;;;;5069487;28;20971;-71
2022/10/03 05:56:13;;;;;;;0.40;0.40;;;11.30;99.90;;;;;;5100285;28;20449;-74
2022/10/03 05:59:53;;;;;;;3.43;0.50;;;11.30;99.90;;;;;;5099122;28;20433;-75
2022/10/03 06:02:54;;;;;;;0.40;0.40;;;11.40;99.90;;;;;;5099084;28;20810;-73
2022/10/03 06:06:00;;;;;;;1.60;0.60;;;11.40;99.90;;;;;;5097169;28;20476;-73
2022/10/03 06:09:07;;;;;;;0.50;0.50;;;11.30;99.90;;;;;;5098424;28;20519;-74
2022/10/03 06:12:09;;;;;;;0.40;0.40;;;11.30;99.90;;;;;;5100717;28;20945;-73
2022/10/03 06:15:16;;;;;;;0.70;0.70;;;11.30;99.90;;;;;;5107285;22;20446;-70
2022/10/03 06:18:21;;;;;;;0.60;0.53;;;11.30;99.90;;;;;;5095095;28;20810;-69
2022/10/03 06:21:40;;;;;;;0.60;0.60;;;11.40;99.90;;;;;;5094648;28;20461;-70
2022/10/03 06:25:06;;;;;;;0.40;0.40;;;11.50;99.90;;;;;;5095504;28;20427;-70
2022/10/03 06:28:28;;;;;;;0.50;0.50;;;11.60;99.90;;;;;;5076464;28;20480;-69
2022/10/03 06:32:01;;;;;;;0.40;0.40;;;11.60;99.90;;;;;;5078135;28;20415;-69
2022/10/03 06:35:14;;;;;;;3.43;1.17;;;11.60;99.90;;;;;;5076336;28;20434;-70
2022/10/03 06:38:29;;;;;;;1.00;0.90;;;11.60;99.90;;;;;;5076621;28;20515;-70
2022/10/03 06:42:02;;;;;;;0.50;0.50;;;11.80;99.90;;;;;;5076342;28;20475;-70
2022/10/03 06:45:14;;;;;;;0.50;0.50;;;11.90;99.90;;;;;;5076391;28;20459;-70
2022/10/03 06:48:16;;;;;;;0.60;0.60;;;12.10;99.90;;;;;;5078224;28;20420;-71
2022/10/03 06:51:43;;;;;;;1.30;1.30;;;12.20;99.90;;;;;;5089965;28;20429;-70
2022/10/03 06:55:20;;;;;;;0.50;0.50;;;12.10;99.90;;;;;;5091238;28;20433;-70
2022/10/03 06:58:53;;;;;;;2.30;1.47;;;12.10;99.90;;;;;;5093641;28;20431;-69
2022/10/03 07:02:02;;;;;;;0.40;0.40;;;12.20;99.90;;;;;;5012420;28;20466;-70
2022/10/03 07:05:26;;;;;;;0.73;0.50;;;12.20;99.90;;;;;;5010744;28;20489;-71
2022/10/03 07:08:59;;;;;;;0.60;0.60;;;12.20;99.90;;;;;;5091010;28;20776;-70
2022/10/03 07:12:19;;;;;;;0.40;0.40;;;12.30;99.90;;;;;;5092554;28;20974;-70
2022/10/03 07:15:34;;;;;;;1.77;1.63;;;12.40;99.90;;;;;;5082911;28;20510;-70
2022/10/03 07:19:16;;;;;;;0.80;0.70;;;12.50;99.90;;;;;;5074348;28;20435;-69
2022/10/03 07:22:35;;;;;;;0.43;0.43;;;12.60;99.90;;;;;;5072689;28;20415;-70
2022/10/03 07:25:59;;;;;;;1.07;0.60;;;12.60;99.90;;;;;;5073183;28;20469;-70
2022/10/03 07:29:08;;;;;;;0.83;0.83;;;12.60;99.90;;;;;;5054286;28;20416;-70
2022/10/03 07:32:23;;;;;;;0.47;0.47;;;12.60;99.90;;;;;;5051097;28;20420;-70
2022/10/03 07:39:21;;;;;;;0.50;0.50;;;12.70;99.90;;;;;;5052839;28;20428;-70
2022/10/03 07:42:40;;;;;;;1.20;0.60;;;13.00;99.90;;;;;;5044796;28;20454;-69
2022/10/03 07:45:38;;;;;;;0.80;0.80;;;13.10;99.90;;;;;;5047787;28;20555;-69
2022/10/03 07:49:01;;;;;;;0.40;0.40;;;13.20;99.90;;;;;;5052780;28;20511;-70
2022/10/03 07:52:07;;;;;;;0.40;0.40;;;13.20;99.90;;;;;;5052676;28;21023;-71
2022/10/03 07:55:21;;;;;;;0.40;0.40;;;13.10;99.90;;;;;;5053012;28;20450;-71
2022/10/03 07:58:30;;;;;;;0.40;0.40;;;13.10;99.90;;;;;;5053542;28;20463;-70
2022/10/03 08:01:44;;;;;;;0.40;0.40;;;13.10;99.90;;;;;;5053018;28;20495;-70
2022/10/03 08:05:01;;;;;;;1.03;1.03;;;13.20;99.90;;;;;;5053334;28;20435;-70
2022/10/03 08:08:08;;;;;;;0.50;0.50;;;13.30;99.90;;;;;;5053707;28;20510;-70
2022/10/03 08:11:13;;;;;;;3.70;1.57;;;13.30;99.90;;;;;;5052303;28;20420;-70
2022/10/03 08:14:16;;;;;;;6.23;1.70;;;13.30;99.90;;;;;;5052024;28;20424;-70
2022/10/03 08:17:42;;;;;;;0.40;0.40;;;13.30;99.90;;;;;;5052936;28;20455;-70
2022/10/03 08:20:42;;;;;;;0.40;0.40;;;13.30;99.90;;;;;;5052484;28;20464;-71
2022/10/03 08:24:03;;;;;;;0.40;0.40;;;13.40;99.90;;;;;;5053401;28;20436;-70
2022/10/03 08:27:23;;;;;;;3.33;0.70;;;13.50;99.90;;;;;;5058620;28;20447;-71
2022/10/03 08:30:41;;;;;;;1.17;0.90;;;13.60;99.90;;;;;;5073669;28;20435;-70
2022/10/03 08:33:52;;;;;;;0.40;0.40;;;13.60;99.90;;;;;;5073498;28;20502;-70
2022/10/03 08:37:11;;;;;;;0.90;0.90;;;13.40;99.90;;;;;;5071927;28;20894;-70
2022/10/03 08:40:39;;;;;;;15.27;1.00;;;13.40;99.90;;;;;;5073489;28;20437;-70
2022/10/03 08:44:07;;;;;;;29.07;1.43;;;13.50;99.90;;;;;;5028745;28;20813;-71
2022/10/03 08:47:26;;;;;;;0.40;0.40;;;13.80;99.90;;;;;;5059135;28;20530;-70
2022/10/03 08:50:28;;;;;;;2.20;0.53;;;14.00;99.90;;;;;;5070181;28;20447;-70
2022/10/03 08:53:49;;;;;;;4.07;1.87;;;14.00;99.90;;;;;;5070907;28;20427;-71
2022/10/03 08:57:08;;;;;;;4.67;0.80;;;14.00;99.90;;;;;;5072720;28;20827;-70
2022/10/03 09:00:16;;;;;;;0.47;0.40;;;13.90;99.90;;;;;;5073022;28;20506;-70
2022/10/03 09:03:55;;;;;;;6.80;1.43;;;13.90;99.90;;;;;;5070702;28;20418;-71
2022/10/03 09:07:00;;;;;;;2.33;2.20;;;14.10;99.90;;;;;;5070799;28;20447;-71
2022/10/03 09:10:33;;;;;;;0.40;0.40;;;14.20;99.90;;;;;;5071965;28;20419;-69
2022/10/03 09:13:56;;;;;;;6.57;1.13;;;14.30;99.90;;;;;;5071030;28;20805;-70
2022/10/03 09:17:03;;;;;;;13.50;0.83;;;14.40;99.90;;;;;;5072179;28;20455;-70
2022/10/03 09:20:26;;;;;;;1.60;0.73;;;14.70;99.90;;;;;;5072564;28;20481;-70
2022/10/03 09:23:41;;;;;;;10.70;1.83;;;14.70;99.90;;;;;;5075703;28;20417;-70
2022/10/03 09:27:07;;;;;;;4.90;1.53;;;14.80;99.90;;;;;;5074699;28;20447;-70
2022/10/03 09:30:14;;;;;;;0.40;0.40;;;14.80;99.90;;;;;;5074590;28;20957;-70
2022/10/03 09:33:43;;;;;;;1.53;0.93;;;14.90;99.90;;;;;;5075120;28;20427;-68
2022/10/03 09:37:18;;;;;;;1.47;0.60;;;15.10;99.90;;;;;;5085274;28;20446;-70
2022/10/03 09:40:43;;;;;;;4.60;1.10;;;14.70;99.90;;;;;;5091080;28;20435;-69
2022/10/03 09:44:01;;;;;;;2.00;0.80;;;14.80;99.90;;;;;;5076259;28;20427;-70
2022/10/03 09:50:36;;;;;;;0.50;0.50;;;15.20;99.90;;;;;;5075198;28;20419;-69
2022/10/03 09:54:02;;;;;;;0.80;0.80;;;15.10;99.90;;;;;;5074708;28;20931;-70
2022/10/03 09:57:18;;;;;;;0.40;0.40;;;15.20;99.90;;;;;;5073715;28;20507;-71
2022/10/03 10:00:31;;;;;;;0.50;0.50;;;15.20;99.90;;;;;;5073529;28;20420;-69
2022/10/03 10:03:47;;;;;;;0.50;0.43;;;15.20;99.90;;;;;;5075051;28;20422;-70
2022/10/03 10:06:53;;;;;;;1.23;0.60;;;15.30;99.90;;;;;;5075560;28;20605;-70
2022/10/03 10:10:02;;;;;;;0.50;0.50;;;15.40;99.90;;;;;;5073600;28;20426;-70
2022/10/03 10:13:25;;;;;;;1.47;1.37;;;15.50;99.90;;;;;;5074825;28;20427;-70
2022/10/03 10:16:29;;;;;;;0.70;0.50;;;15.40;99.90;;;;;;5074654;28;20466;-70
2022/10/03 10:19:41;;;;;;;0.40;0.40;;;15.60;99.90;;;;;;5074603;28;20454;-70
2022/10/03 10:23:07;;;;;;;0.50;0.50;;;15.90;99.90;;;;;;5074818;28;20459;-70
2022/10/03 10:26:22;;;;;;;0.60;0.60;;;15.90;99.90;;;;;;5073177;28;20449;-70
2022/10/03 10:29:35;;;;;;;0.60;0.50;;;15.80;99.90;;;;;;5055303;28;20428;-69
2022/10/03 10:33:05;;;;;;;0.50;0.50;;;15.80;99.90;;;;;;5054380;28;20442;-70
2022/10/03 10:36:50;;;;;;;0.40;0.40;;;15.70;99.90;;;;;;5054296;28;20446;-70
2022/10/03 10:40:04;;;;;;;0.50;0.50;;;15.90;99.90;;;;;;5055408;28;20428;-70
2022/10/03 10:43:23;;;;;;;1.90;1.70;;;16.20;99.90;;;;;;5054703;28;20521;-69
2022/10/03 10:47:00;;;;;;;1.00;0.90;;;16.30;99.90;;;;;;5055058;28;20535;-69
2022/10/03 10:50:24;;;;;;;0.50;0.50;;;16.00;99.90;;;;;;5011687;28;20475;-69
2022/10/03 10:53:46;;;;;;;0.73;0.60;;;15.60;99.90;;;;;;5055371;28;20412;-70
2022/10/03 10:57:09;;;;;;;4.13;0.70;;;15.50;99.90;;;;;;5053571;28;20527;-70
2022/10/03 11:00:14;;;;;;;0.40;0.40;;;15.20;99.90;;;;;;5052663;28;20428;-70
2022/10/03 11:03:39;;;;;;;5.93;0.87;;;14.90;99.90;;;;;;5056531;28;20494;-69
2022/10/03 11:06:56;;;;;;;0.40;0.40;;;14.80;99.90;;;;;;5059469;28;20542;-70
2022/10/03 11:10:04;;;;;;;0.70;0.60;;;14.90;99.90;;;;;;5059183;28;20944;-70
2022/10/03 11:13:30;;;;;;;3.20;0.60;;;15.10;99.90;;;;;;5059000;28;20897;-70
2022/10/03 11:17:00;;;;;;;0.97;0.70;;;15.60;99.90;;;;;;5058175;28;20466;-70
2022/10/03 11:20:30;;;;;;;0.90;0.50;;;16.10;99.90;;;;;;5062042;28;20435;-69
2022/10/03 11:23:39;;;;;;;0.40;0.40;;;16.20;99.90;;;;;;5076848;28;20462;-69
2022/10/03 11:27:01;;;;;;;2.00;0.70;;;16.10;99.90;;;;;;5076186;28;20450;-69
2022/10/03 11:30:18;;;;;;;0.40;0.40;;;16.30;99.90;;;;;;5055220;28;20232;-69
2022/10/03 11:33:50;;;;;;;0.40;0.40;;;16.40;99.90;;;;;;5058410;28;20444;-70
2022/10/03 11:36:54;;;;;;;0.40;0.40;;;16.30;99.90;;;;;;5055221;28;20224;-70
2022/10/03 11:39:49;;;;;;;0.40;0.40;;;16.10;99.90;;;;;;5051456;28;20201;-69
2022/10/03 11:42:50;;;;;;;0.43;0.43;;;16.10;99.90;;;;;;5052739;28;20213;-70
2022/10/03 11:45:46;;;;;;;1.17;0.63;;;16.10;99.90;;;;;;5053589;28;20467;-69
2022/10/03 11:48:41;;;;;;;0.50;0.50;;;16.00;99.90;;;;;;5053203;28;20197;-70
2022/10/03 11:51:41;;;;;;;0.40;0.40;;;15.90;99.90;;;;;;5053066;28;20202;-70
2022/10/03 11:54:33;;;;;;;2.13;1.67;;;15.80;99.90;;;;;;5053787;28;20420;-70
2022/10/03 11:57:29;;;;;;;0.70;0.40;;;15.80;99.90;;;;;;5054817;28;20227;-70
2022/10/03 12:00:20;;;;;;;0.40;0.40;;;15.70;99.90;;;;;;5054474;28;20428;-70
2022/10/03 12:03:19;;;;;;;0.50;0.50;;;15.50;99.90;;;;;;5053605;28;20237;-69
2022/10/03 12:09:30;;;;;;;2.00;1.80;;;15.50;99.90;;;;;;5054394;28;20459;-70
2022/10/03 12:12:29;;;;;;;0.40;0.40;;;15.50;99.90;;;;;;5053317;28;20275;-69
2022/10/03 12:15:34;;;;;;;12.30;1.53;;;15.40;99.90;;;;;;5078440;23;21045;-70
2022/10/03 12:18:32;;;;;;;2.50;1.83;;;15.40;99.90;;;;;;5092574;28;20422;-74
2022/10/03 12:21:28;;;;;;;0.50;0.50;;;15.60;99.90;;;;;;5091787;28;20968;-75
2022/10/03 12:24:24;;;;;;;0.40;0.40;;;15.90;99.90;;;;;;5091607;28;20418;-74
2022/10/03 12:27:22;;;;;;;1.57;1.20;;;16.20;99.90;;;;;;5092073;28;20461;-74
2022/10/03 12:30:15;;;;;;;1.53;0.90;;;16.40;99.90;;;;;;5092312;28;20426;-75
2022/10/03 12:33:26;;;;;;;0.40;0.40;;;16.50;99.90;;;;;;5090839;28;20694;-74
2022/10/03 12:36:18;;;;;;;0.80;0.80;;;16.50;99.90;;;;;;5092861;28;20215;-73
2022/10/03 12:39:23;;;;;;;0.50;0.50;;;16.60;99.90;;;;;;5090526;28;20200;-74
2022/10/03 12:42:25;;;;;;;0.50;0.50;;;16.80;99.90;;;;;;5089809;28;20196;-72
2022/10/03 12:45:24;;;;;;;0.60;0.57;;;17.00;99.90;;;;;;5093011;28;20219;-72
2022/10/03 12:48:44;;;;;;;0.87;0.87;;;17.00;99.90;;;;;;5092335;28;20281;-71
2022/10/03 12:51:50;;;;;;;0.40;0.40;;;16.60;99.90;;;;;;5091995;28;20204;-72
2022/10/03 12:54:48;;;;;;;0.50;0.50;;;16.30;99.90;;;;;;5094174;28;20429;-72
2022/10/03 12:57:50;;;;;;;1.90;0.50;;;16.20;99.90;;;;;;5094192;28;20214;-72
2022/10/03 13:00:46;;;;;;;1.00;1.00;;;16.30;99.90;;;;;;5095169;28;20196;-72
2022/10/03 13:03:48;;;;;;;0.50;0.50;;;16.60;99.90;;;;;;5095353;28;20458;-72
2022/10/03 13:06:44;;;;;;;0.40;0.40;;;16.90;99.90;;;;;;5094960;28;20226;-73
2022/10/03 13:10:00;;;;;;;0.50;0.50;;;17.10;99.90;;;;;;5097616;28;20672;-73
2022/10/03 13:12:53;;;;;;;0.40;0.40;;;17.10;99.90;;;;;;5097908;28;20230;-73
2022/10/03 13:16:03;;;;;;;2.33;0.90;;;17.00;99.90;;;;;;5098675;28;20230;-72
2022/10/03 13:18:55;;;;;;;5.40;1.80;;;16.60;99.90;;;;;;5098486;28;20275;-73
2022/10/03 13:22:02;;;;;;;0.50;0.50;;;16.40;99.90;;;;;;5096161;28;20467;-73
2022/10/03 13:25:00;;;;;;;2.70;0.77;;;16.40;99.90;;;;;;5097527;28;20429;-72
2022/10/03 13:27:58;;;;;;;0.60;0.60;;;16.50;99.90;;;;;;5082400;28;20707;-72
2022/10/03 13:30:50;;;;;;;0.40;0.40;;;16.60;99.90;;;;;;5074420;28;20707;-73
2022/10/03 13:33:44;;;;;;;1.10;0.50;;;16.50;99.90;;;;;;5073991;28;20231;-76
2022/10/03 13:36:37;;;;;;;1.27;0.60;;;16.70;99.90;;;;;;5074282;28;20235;-73
2022/10/03 13:39:28;;;;;;;0.50;0.50;;;17.00;99.90;;;;;;5074974;28;20200;-73
2022/10/03 13:42:22;;;;;;;0.40;0.40;;;17.70;99.90;;;;;;5074594;28;20197;-72
2022/10/03 13:45:16;;;;;;;0.40;0.40;;;17.80;99.90;;;;;;5075257;28;20219;-73
2022/10/03 13:48:09;;;;;;;0.40;0.40;;;17.80;99.90;;;;;;5075133;28;20279;-72
2022/10/03 13:51:04;;;;;;;0.60;0.50;;;17.60;99.90;;;;;;5073888;28;20209;-72
2022/10/03 13:54:00;;;;;;;0.40;0.40;;;17.50;99.90;;;;;;5074428;28;20192;-74
2022/10/03 13:56:54;;;;;;;0.40;0.40;;;17.30;99.90;;;;;;5076598;28;20297;-74
2022/10/03 13:59:56;;;;;;;0.43;0.43;;;17.50;99.90;;;;;;5075483;28;20207;-74
2022/10/03 14:03:08;;;;;;;0.40;0.40;;;17.70;99.90;;;;;;5074408;28;20196;-74
2022/10/03 14:06:10;;;;;;;1.07;0.80;;;17.60;99.90;;;;;;5073609;28;20599;-73
2022/10/03 14:09:21;;;;;;;0.60;0.60;;;17.60;99.90;;;;;;5073171;28;20200;-74
2022/10/03 14:12:21;;;;;;;0.40;0.40;;;17.50;99.90;;;;;;5075224;28;20200;-72
2022/10/03 14:15:41;;;;;;;0.40;0.40;;;18.60;99.90;;;;;;5073127;28;20247;-74
2022/10/03 14:18:44;;;;;;;1.48;0.70;;;19.20;99.90;;;;;;5075633;28;20197;-74
2022/10/03 14:22:06;;;;;;;0.50;0.50;;;18.90;99.90;;;;;;5074569;28;20680;-73
2022/10/03 14:25:05;;;;;;;0.45;0.45;;;18.20;99.90;;;;;;5074646;28;20311;-73
2022/10/03 14:27:55;;;;;;;2.17;0.88;;;17.60;99.90;;;;;;5088377;28;20200;-72
2022/10/03 14:30:56;;;;;;;8.48;0.63;;;17.40;99.90;;;;;;5095036;28;20701;-72
2022/10/03 14:34:01;;;;;;;0.85;0.50;;;17.30;99.90;;;;;;5095337;28;20188;-72
2022/10/03 14:36:53;;;;;;;0.43;0.40;;;17.00;99.90;;;;;;5095310;28;20291;-72
2022/10/03 14:39:51;;;;;;;0.40;0.40;;;16.90;99.90;;;;;;5093990;28;20240;-72
2022/10/03 14:42:59;;;;;;;0.40;0.40;;;16.90;99.90;;;;;;5093788;28;20231;-74
2022/10/03 14:45:51;;;;;;;1.33;1.33;;;17.00;99.90;;;;;;5095164;28;20222;-72
2022/10/03 14:48:44;;;;;;;0.50;0.50;;;16.90;99.90;;;;;;5095022;28;20199;-72
2022/10/03 14:51:37;;;;;;;0.40;0.40;;;16.90;99.90;;;;;;5093359;28;20310;-76
2022/10/03 14:54:27;;;;;;;0.40;0.40;;;16.70;99.90;;;;;;5094274;28;20245;-74
2022/10/03 14:57:30;;;;;;;0.80;0.80;;;16.70;99.90;;;;;;5092773;28;20414;-72
2022/10/03 15:00:27;;;;;;;0.40;0.40;;;16.60;99.90;;;;;;5093563;28;20204;-73
2022/10/03 15:03:36;;;;;;;0.40;0.40;;;16.50;99.90;;;;;;5093062;28;20199;-73
2022/10/03 15:06:52;;;;;;;0.40;0.40;;;16.40;99.90;;;;;;5094907;28;20223;-72
2022/10/03 15:09:47;;;;;;;0.50;0.50;;;16.20;99.90;;;;;;5094391;28;20239;-73
2022/10/03 15:12:38;;;;;;;0.53;0.53;;;16.10;99.90;;;;;;5093202;28;20593;-73
2022/10/03 15:15:30;;;;;;;0.40;0.40;;;16.10;99.90;;;;;;5094773;28;20224;-73
2022/10/03 15:18:23;;;;;;;0.40;0.40;;;16.10;99.90;;;;;;5093134;28;20577;-73
2022/10/03 15:21:16;;;;;;;0.60;0.60;;;16.20;99.90;;;;;;5094371;28;20204;-72
2022/10/03 15:24:06;;;;;;;0.40;0.40;;;16.00;99.90;;;;;;5094467;28;20346;-72
2022/10/03 15:27:01;;;;;;;0.40;0.40;;;16.10;99.90;;;;;;5086716;28;20701;-73
2022/10/03 15:29:53;;;;;;;0.60;0.50;;;16.00;99.90;;;;;;5073621;28;20202;-72
2022/10/03 15:32:45;;;;;;;0.50;0.50;;;16.00;99.90;;;;;;5073573;28;20211;-72
2022/10/03 15:35:40;;;;;;;0.40;0.40;;;16.00;99.90;;;;;;5072937;28;20538;-74
2022/10/03 15:38:36;;;;;;;6.10;3.60;;;15.90;99.90;;;;;;5072039;28;20199;-74
2022/10/03 15:41:32;;;;;;;1.17;0.60;;;15.90;99.90;;;;;;5073699;28;20419;-73
2022/10/03 15:44:27;;;;;;;0.50;0.50;;;15.70;99.90;;;;;;5073201;28;20213;-73
2022/10/03 15:47:20;;;;;;;0.50;0.50;;;15.70;99.90;;;;;;5073185;28;20227;-72
2022/10/03 15:50:18;;;;;;;0.40;0.40;;;15.60;99.90;;;;;;5073616;28;20804;-71
2022/10/03 15:53:10;;;;;;;0.50;0.50;;;15.60;99.90;;;;;;5074008;28;20424;-70
2022/10/03 15:56:26;;;;;;;0.40;0.40;;;15.50;99.90;;;;;;5073978;28;20443;-72
2022/10/03 15:59:21;;;;;;;0.50;0.50;;;15.50;99.90;;;;;;5072188;28;20215;-72
2022/10/03 16:02:17;;;;;;;0.50;0.50;;;15.40;99.90;;;;;;5072630;28;20427;-73
2022/10/03 16:05:13;;;;;;;0.50;0.50;;;15.80;99.90;;;;;;5072213;28;20475;-72
2022/10/03 16:08:06;;;;;;;0.43;0.43;;;15.30;99.90;;;;;;5073039;28;20422;-71
2022/10/03 16:11:05;;;;;;;0.60;0.60;;;15.20;99.90;;;;;;5073083;28;20970;-73
2022/10/03 16:14:07;;;;;;;0.63;0.57;;;15.20;99.90;;;;;;5071963;28;20780;-72
2022/10/03 16:16:58;;;;;;;1.23;0.93;;;15.10;99.90;;;;;;5071881;28;20588;-72
2022/10/03 16:19:53;;;;;;;0.50;0.50;;;15.10;99.90;;;;;;5073140;28;20205;-73
2022/10/03 16:22:44;;;;;;;0.50;0.50;;;15.00;99.90;;;;;;5072579;28;20445;-71
2022/10/03 16:25:42;;;;;;;0.50;0.50;;;15.00;99.90;;;;;;5072417;28;20475;-73